createdAt,value
2023-02-09T00:00:57.032Z,82.28
2023-02-09T00:02:00.743Z,82.11
2023-02-09T00:03:04.079Z,82.14
2023-02-09T00:04:07.230Z,81.71
2023-02-09T00:05:10.668Z,82.21
2023-02-09T00:06:15.102Z,81.75
2023-02-09T00:07:18.398Z,81.57
2023-02-09T00:08:21.809Z,81.18
2023-02-09T00:09:25.941Z,81.42
2023-02-09T00:10:28.180Z,81.54
2023-02-09T00:11:50.964Z,82.42
2023-02-09T00:13:11.995Z,84.70
2023-02-09T00:14:17.661Z,84.05
2023-02-09T00:15:22.007Z,83.01
2023-02-09T00:16:26.632Z,82.82
2023-02-09T00:17:29.436Z,82.88
2023-02-09T00:18:34.530Z,83.36
2023-02-09T00:19:37.911Z,83.63
2023-02-09T00:20:40.362Z,84.06
2023-02-09T00:21:44.176Z,83.47
2023-02-09T00:22:47.507Z,82.87
2023-02-09T00:23:50.883Z,83.04
2023-02-09T00:24:56.428Z,83.21
2023-02-09T00:26:04.291Z,82.01
2023-02-09T00:27:08.086Z,81.35
2023-02-09T00:28:12.372Z,81.79
2023-02-09T00:29:15.163Z,81.93
2023-02-09T00:30:19.253Z,82.83
2023-02-09T00:31:22.643Z,83.90
2023-02-09T00:32:26.442Z,84.74
2023-02-09T00:33:29.948Z,84.08
2023-02-09T00:34:32.644Z,84.38
2023-02-09T00:35:38.620Z,84.49
2023-02-09T00:36:42.147Z,84.01
2023-02-09T00:37:45.756Z,83.69
2023-02-09T00:38:50.949Z,83.16
2023-02-09T00:39:54.836Z,83.19
2023-02-09T00:40:57.396Z,84.85
2023-02-09T00:42:07.711Z,86.87
2023-02-09T00:43:12.565Z,87.23
2023-02-09T00:44:17.339Z,86.56
2023-02-09T00:45:20.711Z,86.43
2023-02-09T00:46:25.871Z,86.17
2023-02-09T00:47:29.079Z,86.78
2023-02-09T00:48:32.180Z,87.63
2023-02-09T00:49:35.059Z,87.52
2023-02-09T00:50:38.235Z,87.92
2023-02-09T00:51:44.932Z,87.24
2023-02-09T00:52:48.696Z,86.95
2023-02-09T00:53:52.201Z,87.14
2023-02-09T00:54:58.539Z,87.34
2023-02-09T00:56:02.249Z,87.79
2023-02-09T00:57:05.846Z,87.50
2023-02-09T00:58:10.454Z,86.62
2023-02-09T00:59:15.266Z,85.37
2023-02-09T01:00:21.310Z,84.46
2023-02-09T01:01:24.528Z,84.79
2023-02-09T01:02:30.382Z,85.05
2023-02-09T01:03:33.885Z,84.83
2023-02-09T01:04:39.290Z,84.81
2023-02-09T01:05:44.734Z,84.79
2023-02-09T01:06:47.939Z,84.70
2023-02-09T01:07:53.154Z,84.25
2023-02-09T01:08:57.207Z,84.54
2023-02-09T01:10:00.879Z,84.08
2023-02-09T01:11:10.636Z,84.88
2023-02-09T01:12:14.457Z,84.68
2023-02-09T01:13:17.960Z,84.91
2023-02-09T01:14:21.464Z,84.76
2023-02-09T01:15:24.734Z,84.67
2023-02-09T01:16:31.061Z,84.48
2023-02-09T01:17:34.525Z,84.45
2023-02-09T01:18:37.715Z,84.61
2023-02-09T01:19:40.963Z,84.94
2023-02-09T01:20:49.038Z,84.70
2023-02-09T01:21:52.476Z,85.66
2023-02-09T01:22:56.300Z,85.17
2023-02-09T01:24:02.723Z,85.67
2023-02-09T01:25:09.117Z,85.35
2023-02-09T01:26:13.063Z,84.51
2023-02-09T01:27:16.364Z,84.49
2023-02-09T01:28:21.490Z,84.89
2023-02-09T01:29:26.201Z,85.26
2023-02-09T01:30:29.733Z,85.53
2023-02-09T01:31:34.461Z,85.62
2023-02-09T01:32:38.178Z,85.75
2023-02-09T01:33:41.589Z,86.08
2023-02-09T01:34:44.457Z,85.76
2023-02-09T01:35:47.732Z,85.99
2023-02-09T01:36:50.740Z,85.58
2023-02-09T01:37:53.918Z,85.38
2023-02-09T01:38:59.533Z,85.37
2023-02-09T01:40:04.830Z,85.45
2023-02-09T01:41:07.472Z,85.62
2023-02-09T01:42:16.831Z,85.48
2023-02-09T01:43:20.124Z,85.17
2023-02-09T01:44:24.257Z,85.11
2023-02-09T01:45:30.883Z,85.29
2023-02-09T01:46:34.886Z,85.17
2023-02-09T01:47:40.504Z,85.08
2023-02-09T01:48:44.535Z,85.08
2023-02-09T01:49:56.702Z,84.46
2023-02-09T01:51:02.965Z,84.25
2023-02-09T01:52:09.888Z,84.29
2023-02-09T01:53:16.411Z,83.78
2023-02-09T01:54:21.427Z,82.64
2023-02-09T01:55:26.571Z,82.37
2023-02-09T01:56:31.742Z,82.29
2023-02-09T01:57:36.876Z,83.05
2023-02-09T01:58:40.355Z,82.88
2023-02-09T01:59:45.602Z,82.80
2023-02-09T02:00:49.723Z,82.59
2023-02-09T02:01:53.645Z,82.78
2023-02-09T02:02:58.413Z,83.08
2023-02-09T02:04:02.850Z,83.21
2023-02-09T02:05:08.352Z,82.88
2023-02-09T02:06:13.337Z,83.13
2023-02-09T02:07:17.857Z,83.14
2023-02-09T02:08:29.443Z,83.61
2023-02-09T02:09:34.783Z,82.98
2023-02-09T02:10:37.568Z,83.11
2023-02-09T02:11:43.905Z,83.70
2023-02-09T02:12:47.399Z,83.45
2023-02-09T02:13:52.261Z,83.89
2023-02-09T02:14:57.429Z,84.38
2023-02-09T02:16:06.870Z,84.10
2023-02-09T02:17:29.077Z,83.96
2023-02-09T02:18:38.035Z,84.28
2023-02-09T02:19:53.535Z,84.10
2023-02-09T02:20:58.620Z,83.93
2023-02-09T02:22:17.689Z,83.97
2023-02-09T02:23:26.835Z,83.22
2023-02-09T02:24:40.886Z,83.06
2023-02-09T02:25:59.433Z,83.20
2023-02-09T02:27:05.893Z,82.66
2023-02-09T02:28:17.160Z,82.82
2023-02-09T02:29:39.871Z,82.44
2023-02-09T02:30:48.477Z,82.96
2023-02-09T02:31:55.761Z,82.49
2023-02-09T02:33:19.224Z,82.62
2023-02-09T02:34:34.677Z,82.43
2023-02-09T02:35:39.339Z,82.32
2023-02-09T02:36:53.626Z,82.44
2023-02-09T02:37:57.820Z,82.39
2023-02-09T02:39:09.063Z,82.52
2023-02-09T02:40:25.834Z,82.74
2023-02-09T02:41:38.909Z,82.96
2023-02-09T02:42:49.109Z,83.28
2023-02-09T02:44:05.270Z,83.95
2023-02-09T02:45:13.283Z,84.15
2023-02-09T02:46:17.994Z,83.61
2023-02-09T02:47:23.527Z,83.86
2023-02-09T02:48:38.884Z,84.23
2023-02-09T02:49:57.102Z,84.41
2023-02-09T02:51:02.399Z,84.48
2023-02-09T02:52:07.637Z,83.67
2023-02-09T02:53:13.874Z,83.80
2023-02-09T02:54:19.655Z,84.34
2023-02-09T02:55:27.162Z,84.39
2023-02-09T02:56:33.580Z,84.27
2023-02-09T02:57:39.957Z,84.68
2023-02-09T02:58:44.541Z,85.01
2023-02-09T02:59:52.987Z,85.16
2023-02-09T03:00:59.595Z,85.25
2023-02-09T03:02:04.132Z,85.40
2023-02-09T03:03:08.902Z,85.08
2023-02-09T03:04:15.341Z,86.72
2023-02-09T03:05:19.285Z,85.62
2023-02-09T03:06:21.913Z,85.09
2023-02-09T03:07:26.787Z,85.30
2023-02-09T03:08:29.969Z,85.33
2023-02-09T03:09:33.300Z,85.36
2023-02-09T03:10:39.290Z,85.63
2023-02-09T03:11:44.878Z,86.02
2023-02-09T03:12:51.908Z,85.91
2023-02-09T03:13:59.813Z,86.54
2023-02-09T03:15:07.087Z,85.73
2023-02-09T03:16:18.386Z,84.98
2023-02-09T03:17:25.384Z,84.60
2023-02-09T03:18:37.037Z,83.56
2023-02-09T03:19:43.401Z,82.85
2023-02-09T03:20:56.058Z,83.50
2023-02-09T03:22:02.714Z,83.23
2023-02-09T03:23:07.755Z,83.16
2023-02-09T03:24:12.933Z,82.53
2023-02-09T03:25:18.130Z,81.89
2023-02-09T03:26:23.182Z,82.32
2023-02-09T03:27:29.330Z,82.94
2023-02-09T03:28:35.109Z,83.22
2023-02-09T03:29:38.930Z,83.79
2023-02-09T03:30:44.056Z,83.64
2023-02-09T03:31:49.681Z,83.62
2023-02-09T03:32:56.127Z,83.93
2023-02-09T03:34:01.210Z,83.61
2023-02-09T03:35:06.060Z,83.45
2023-02-09T03:36:11.495Z,83.75
2023-02-09T03:37:14.732Z,82.78
2023-02-09T03:39:20.501Z,82.84
2023-02-09T03:41:30.157Z,82.57
2023-02-09T03:42:32.477Z,82.69
2023-02-09T03:43:53.435Z,83.00
2023-02-09T03:44:57.974Z,83.36
2023-02-09T03:46:02.055Z,83.32
2023-02-09T03:47:07.401Z,82.96
2023-02-09T03:48:10.900Z,83.04
2023-02-09T03:49:16.593Z,83.17
2023-02-09T03:50:22.108Z,82.46
2023-02-09T03:51:25.336Z,82.30
2023-02-09T03:52:28.572Z,82.61
2023-02-09T03:53:31.846Z,81.88
2023-02-09T03:54:35.042Z,81.76
2023-02-09T03:55:38.802Z,81.96
2023-02-09T03:56:42.899Z,82.00
2023-02-09T03:57:47.052Z,82.10
2023-02-09T03:58:53.353Z,81.74
2023-02-09T03:59:56.498Z,81.84
2023-02-09T04:01:05.367Z,82.45
2023-02-09T04:02:10.610Z,81.21
2023-02-09T04:03:13.641Z,81.78
2023-02-09T04:04:17.252Z,81.26
2023-02-09T04:05:22.114Z,81.37
2023-02-09T04:06:25.669Z,80.64
2023-02-09T04:07:28.400Z,80.87
2023-02-09T04:08:34.730Z,80.39
2023-02-09T04:09:39.087Z,80.06
2023-02-09T04:10:42.361Z,80.51
2023-02-09T04:11:46.904Z,80.61
2023-02-09T04:12:51.052Z,80.47
2023-02-09T04:13:53.492Z,80.78
2023-02-09T04:14:57.103Z,81.02
2023-02-09T04:16:00.607Z,80.94
2023-02-09T04:17:04.100Z,80.55
2023-02-09T04:18:08.557Z,80.62
2023-02-09T04:19:11.958Z,80.26
2023-02-09T04:20:15.457Z,80.64
2023-02-09T04:21:18.816Z,81.33
2023-02-09T04:22:23.413Z,81.57
2023-02-09T04:23:27.147Z,81.20
2023-02-09T04:24:30.471Z,81.14
2023-02-09T04:25:33.930Z,81.25
2023-02-09T04:26:37.632Z,81.53
2023-02-09T04:27:40.806Z,81.31
2023-02-09T04:28:44.343Z,81.03
2023-02-09T04:29:46.479Z,81.20
2023-02-09T04:30:54.377Z,81.29
2023-02-09T04:31:58.143Z,81.40
2023-02-09T04:33:01.796Z,80.75
2023-02-09T04:34:04.385Z,81.07
2023-02-09T04:35:07.677Z,80.70
2023-02-09T04:36:10.757Z,80.46
2023-02-09T04:37:14.286Z,80.59
2023-02-09T04:38:20.876Z,80.05
2023-02-09T04:39:25.459Z,80.16
2023-02-09T04:40:29.885Z,80.51
2023-02-09T04:41:32.963Z,79.90
2023-02-09T04:42:36.028Z,79.76
2023-02-09T04:43:38.640Z,79.85
2023-02-09T04:44:41.848Z,80.70
2023-02-09T04:45:45.284Z,81.15
2023-02-09T04:46:48.829Z,81.04
2023-02-09T04:47:52.538Z,81.24
2023-02-09T04:48:56.912Z,81.54
2023-02-09T04:50:00.190Z,81.24
2023-02-09T04:51:03.794Z,81.26
2023-02-09T04:52:07.199Z,81.63
2023-02-09T04:53:12.234Z,81.25
2023-02-09T04:54:17.033Z,81.32
2023-02-09T04:55:20.532Z,81.62
2023-02-09T04:56:24.687Z,81.23
2023-02-09T04:57:46.581Z,81.43
2023-02-09T04:59:07.592Z,81.07
2023-02-09T05:00:12.175Z,80.55
2023-02-09T05:01:17.512Z,80.46
2023-02-09T05:02:20.730Z,79.66
2023-02-09T05:03:27.421Z,79.43
2023-02-09T05:04:34.466Z,79.12
2023-02-09T05:05:39.487Z,79.45
2023-02-09T05:06:43.108Z,79.90
2023-02-09T05:07:45.451Z,78.98
2023-02-09T05:08:49.112Z,79.26
2023-02-09T05:09:54.283Z,79.41
2023-02-09T05:12:08.044Z,79.46
2023-02-09T05:13:11.255Z,80.06
2023-02-09T05:14:15.700Z,80.64
2023-02-09T05:15:19.226Z,80.90
2023-02-09T05:16:22.836Z,81.09
2023-02-09T05:17:26.100Z,80.93
2023-02-09T05:18:28.439Z,80.65
2023-02-09T05:19:33.169Z,80.68
2023-02-09T05:20:36.614Z,80.34
2023-02-09T05:21:38.854Z,80.14
2023-02-09T05:22:43.825Z,80.56
2023-02-09T05:23:47.129Z,80.38
2023-02-09T05:24:50.318Z,79.55
2023-02-09T05:25:57.066Z,79.35
2023-02-09T05:27:02.134Z,80.18
2023-02-09T05:28:04.427Z,79.98
2023-02-09T05:29:09.339Z,80.42
2023-02-09T05:30:13.586Z,80.48
2023-02-09T05:31:19.833Z,80.49
2023-02-09T05:32:23.288Z,80.48
2023-02-09T05:33:27.035Z,80.42
2023-02-09T05:34:30.015Z,80.35
2023-02-09T05:35:34.979Z,79.38
2023-02-09T05:36:37.433Z,79.67
2023-02-09T05:37:40.962Z,79.25
2023-02-09T05:38:43.500Z,78.34
2023-02-09T05:39:46.906Z,78.52
2023-02-09T08:23:07.614Z,52.99
2023-02-09T08:24:15.475Z,52.83
2023-02-09T08:25:20.841Z,53.70
2023-02-09T08:26:26.306Z,53.38
2023-02-09T08:27:30.182Z,53.81
2023-02-09T08:28:43.577Z,54.71
2023-02-09T08:29:38.336Z,54.84
2023-02-09T08:30:41.823Z,54.48
2023-02-09T08:31:44.184Z,54.68
2023-02-09T08:32:47.969Z,53.75
2023-02-09T08:33:52.014Z,54.04
2023-02-09T08:34:57.276Z,53.92
2023-02-09T08:36:01.241Z,52.33
2023-02-09T08:37:04.296Z,51.64
2023-02-09T08:38:08.315Z,51.41
2023-02-09T08:39:12.063Z,51.35
2023-02-09T08:40:15.744Z,51.42
2023-02-09T08:41:20.823Z,53.01
2023-02-09T08:42:28.780Z,53.43
2023-02-09T08:43:32.146Z,53.58
2023-02-09T08:44:35.508Z,53.09
2023-02-09T08:45:40.145Z,52.66
2023-02-09T08:46:43.617Z,52.22
2023-02-09T08:47:46.330Z,51.79
2023-02-09T08:48:50.170Z,51.52
2023-02-09T08:49:53.670Z,51.64
2023-02-09T08:50:56.888Z,50.42
2023-02-09T08:52:01.609Z,49.77
2023-02-09T08:53:06.690Z,48.42
2023-02-09T08:54:10.842Z,47.74
2023-02-09T08:55:13.905Z,46.98
2023-02-09T08:56:16.679Z,46.58
2023-02-09T08:57:20.076Z,46.94
2023-02-09T08:58:22.856Z,46.60
2023-02-09T08:59:25.988Z,46.13
2023-02-09T09:00:30.508Z,46.25
2023-02-09T09:01:34.727Z,46.92
2023-02-09T09:02:36.955Z,46.72
2023-02-09T09:03:42.162Z,46.84
2023-02-09T09:04:48.709Z,47.67
2023-02-09T09:05:52.933Z,48.08
2023-02-09T09:06:55.614Z,48.45
2023-02-09T09:07:57.957Z,48.81
2023-02-09T09:09:01.366Z,49.08
2023-02-09T09:10:04.805Z,49.41
2023-02-09T09:11:11.779Z,49.28
2023-02-09T09:12:16.163Z,49.68
2023-02-09T09:13:20.479Z,50.09
2023-02-09T09:14:23.649Z,49.83
2023-02-09T09:15:26.465Z,49.61
2023-02-09T09:16:29.831Z,49.61
2023-02-09T09:17:33.575Z,49.72
2023-02-09T09:18:36.906Z,49.76
2023-02-09T09:19:40.376Z,50.19
2023-02-09T09:20:44.942Z,50.00
2023-02-09T09:21:48.317Z,50.07
2023-02-09T09:22:51.831Z,50.38
2023-02-09T09:23:55.022Z,50.58
2023-02-09T09:24:59.497Z,50.44
2023-02-09T09:26:03.705Z,51.07
2023-02-09T09:27:08.672Z,51.54
2023-02-09T09:28:11.959Z,51.71
2023-02-09T09:29:15.580Z,52.40
2023-02-09T09:30:20.127Z,52.27
2023-02-09T09:31:24.504Z,52.28
2023-02-09T09:32:31.390Z,52.06
2023-02-09T09:33:34.595Z,52.01
2023-02-09T09:34:38.010Z,52.79
2023-02-09T09:35:41.540Z,52.07
2023-02-09T09:36:44.800Z,52.22
2023-02-09T09:37:49.246Z,52.12
2023-02-09T09:38:53.668Z,51.95
2023-02-09T09:39:57.687Z,52.37
2023-02-09T09:41:01.133Z,51.93
2023-02-09T09:42:06.441Z,51.65
2023-02-09T09:43:11.578Z,50.79
2023-02-09T09:44:16.873Z,50.52
2023-02-09T09:45:23.400Z,50.02
2023-02-09T09:46:31.242Z,49.67
2023-02-09T09:47:41.792Z,49.44
2023-02-09T09:48:48.740Z,50.20
2023-02-09T09:49:52.362Z,49.73
2023-02-09T09:50:57.847Z,48.57
2023-02-09T09:52:03.179Z,47.78
2023-02-09T09:53:11.126Z,47.18
2023-02-09T09:54:22.076Z,46.98
2023-02-09T09:55:25.866Z,46.75
2023-02-09T09:56:32.292Z,45.83
2023-02-09T09:57:37.568Z,46.00
2023-02-09T09:58:45.705Z,45.49
2023-02-09T09:59:48.957Z,44.70
2023-02-09T10:00:52.065Z,45.08
2023-02-09T10:01:57.346Z,44.76
2023-02-09T10:03:01.780Z,45.02
2023-02-09T10:04:05.797Z,44.77
2023-02-09T10:05:14.536Z,44.92
2023-02-09T10:06:19.805Z,44.34
2023-02-09T10:07:24.912Z,44.94
2023-02-09T10:08:35.694Z,45.01
2023-02-09T10:09:45.404Z,45.42
2023-02-09T10:10:50.756Z,45.21
2023-02-09T10:13:03.812Z,44.29
2023-02-09T10:14:06.912Z,45.19
2023-02-09T10:15:17.821Z,44.77
2023-02-09T10:16:29.155Z,45.38
2023-02-09T10:17:32.780Z,44.85
2023-02-09T10:18:38.883Z,44.48
2023-02-09T10:19:41.384Z,43.87
2023-02-09T10:20:55.121Z,44.03
2023-02-09T10:22:05.817Z,44.33
2023-02-09T10:23:12.063Z,43.84
2023-02-09T10:24:17.880Z,44.06
2023-02-09T10:25:23.028Z,44.60
2023-02-09T10:26:34.950Z,44.89
2023-02-09T10:27:41.117Z,43.45
2023-02-09T10:28:47.628Z,43.90
2023-02-09T10:29:50.503Z,43.92
2023-02-09T10:30:57.499Z,44.01
2023-02-09T10:32:08.690Z,43.99
2023-02-09T10:33:14.268Z,44.44
2023-02-09T10:34:20.921Z,44.41
2023-02-09T10:35:33.324Z,45.75
2023-02-09T10:36:39.263Z,45.91
2023-02-09T10:37:44.421Z,46.15
2023-02-09T10:38:47.264Z,46.53
2023-02-09T10:39:53.368Z,46.23
2023-02-09T10:40:58.230Z,45.91
2023-02-09T10:42:05.965Z,46.69
2023-02-09T10:43:28.843Z,47.06
2023-02-09T10:44:33.099Z,47.21
2023-02-09T10:45:41.093Z,47.09
2023-02-09T10:46:44.724Z,46.53
2023-02-09T10:48:06.169Z,46.60
2023-02-09T10:49:14.084Z,47.31
2023-02-09T10:50:21.703Z,46.37
2023-02-09T10:51:31.196Z,46.10
2023-02-09T10:52:35.765Z,46.38
2023-02-09T10:53:40.090Z,46.37
2023-02-09T10:54:52.357Z,47.20
2023-02-09T10:56:03.438Z,47.80
2023-02-09T10:57:08.681Z,48.00
2023-02-09T10:58:14.724Z,48.40
2023-02-09T10:59:22.267Z,48.25
2023-02-09T11:00:27.559Z,48.83
2023-02-09T11:01:34.795Z,47.97
2023-02-09T11:02:39.884Z,47.35
2023-02-09T11:03:58.996Z,47.69
2023-02-09T11:05:04.132Z,48.09
2023-02-09T11:06:17.766Z,47.85
2023-02-09T11:07:23.873Z,47.76
2023-02-09T11:08:32.182Z,47.21
2023-02-09T11:09:38.370Z,48.04
2023-02-09T11:10:49.233Z,48.95
2023-02-09T11:11:53.362Z,49.30
2023-02-09T11:12:58.002Z,49.33
2023-02-09T11:14:02.254Z,50.45
2023-02-09T11:15:07.847Z,50.81
2023-02-09T11:16:17.974Z,50.49
2023-02-09T11:17:23.733Z,48.68
2023-02-09T11:18:30.170Z,49.46
2023-02-09T11:19:51.624Z,49.47
2023-02-09T11:21:00.247Z,48.99
2023-02-09T11:22:07.209Z,48.81
2023-02-09T11:23:24.606Z,48.85
2023-02-09T11:24:46.094Z,48.99
2023-02-09T11:25:50.199Z,49.05
2023-02-09T11:27:00.149Z,49.34
2023-02-09T11:28:18.356Z,49.38
2023-02-09T11:29:31.325Z,50.26
2023-02-09T11:30:49.248Z,50.58
2023-02-09T11:32:08.719Z,49.69
2023-02-09T11:34:29.218Z,50.48
2023-02-09T11:35:47.623Z,50.44
2023-02-09T11:38:06.679Z,50.24
2023-02-09T11:39:14.558Z,50.55
2023-02-09T11:40:28.958Z,51.35
2023-02-09T11:41:56.879Z,51.77
2023-02-09T11:43:05.183Z,52.37
2023-02-09T11:44:17.392Z,52.31
2023-02-09T11:45:23.169Z,51.56
2023-02-09T11:46:28.050Z,50.80
2023-02-09T11:47:32.374Z,50.30
2023-02-09T11:48:37.684Z,49.88
2023-02-09T11:49:44.700Z,50.10
2023-02-09T11:50:49.859Z,50.15
2023-02-09T11:51:56.754Z,50.22
2023-02-09T11:53:02.224Z,50.47
2023-02-09T11:54:08.138Z,50.49
2023-02-09T11:55:31.795Z,51.16
2023-02-09T11:56:37.073Z,51.89
2023-02-09T11:57:41.623Z,52.22
2023-02-09T11:58:49.618Z,51.85
2023-02-09T11:59:59.859Z,51.50
2023-02-09T12:01:15.496Z,52.01
2023-02-09T12:02:32.094Z,52.22
2023-02-09T12:03:35.079Z,52.82
2023-02-09T12:04:52.266Z,52.40
2023-02-09T12:05:56.054Z,52.16
2023-02-09T12:07:00.623Z,52.65
2023-02-09T12:08:21.912Z,52.84
2023-02-09T12:09:44.113Z,53.09
2023-02-09T12:11:00.674Z,52.08
2023-02-09T12:12:09.729Z,52.02
2023-02-09T12:13:17.206Z,51.65
2023-02-09T12:14:40.572Z,51.64
2023-02-09T12:15:49.530Z,51.58
2023-02-09T12:17:03.475Z,51.31
2023-02-09T12:18:08.795Z,51.14
2023-02-09T12:19:19.819Z,51.47
2023-02-09T12:20:24.266Z,51.56
2023-02-09T12:21:32.300Z,51.10
2023-02-09T12:22:37.635Z,52.27
2023-02-09T12:23:45.218Z,51.59
2023-02-09T12:25:08.574Z,51.63
2023-02-09T12:26:16.911Z,52.00
2023-02-09T12:27:33.778Z,51.55
2023-02-09T12:28:40.287Z,51.47
2023-02-09T12:29:43.596Z,52.73
2023-02-09T12:30:50.168Z,52.00
2023-02-09T12:32:08.964Z,51.56
2023-02-09T12:33:26.285Z,52.07
2023-02-09T12:35:42.681Z,51.68
2023-02-09T12:37:01.843Z,51.33
2023-02-09T12:38:09.105Z,51.33
2023-02-09T12:39:24.272Z,52.25
2023-02-09T12:40:33.144Z,52.42
2023-02-09T12:41:41.340Z,52.10
2023-02-09T12:42:47.315Z,51.52
2023-02-09T12:43:50.350Z,51.81
2023-02-09T12:44:55.527Z,51.78
2023-02-09T12:46:19.124Z,52.66
2023-02-09T12:47:42.430Z,53.52
2023-02-09T12:48:48.900Z,54.61
2023-02-09T12:49:54.075Z,54.10
2023-02-09T12:50:58.073Z,54.15
2023-02-09T12:52:02.306Z,54.43
2023-02-09T12:53:27.141Z,54.05
2023-02-09T12:54:44.416Z,54.84
2023-02-09T12:56:00.449Z,54.30
2023-02-09T12:57:18.330Z,54.02
2023-02-09T12:58:39.525Z,54.24
2023-02-09T16:31:31.755Z,69.15
2023-02-09T16:32:37.986Z,70.30
2023-02-09T16:33:41.422Z,70.46
2023-02-09T16:34:45.198Z,70.38
2023-02-09T16:35:53.292Z,70.41
2023-02-09T16:36:58.783Z,72.02
2023-02-09T16:38:01.811Z,72.06
2023-02-09T16:39:06.858Z,73.14
2023-02-09T16:40:12.156Z,73.81
2023-02-09T16:41:35.178Z,75.32
2023-02-09T16:42:38.445Z,74.84
2023-02-09T16:43:42.973Z,75.33
2023-02-09T16:44:46.407Z,75.26
2023-02-09T16:46:02.312Z,75.50
2023-02-09T16:47:02.452Z,76.27
2023-02-09T16:48:10.281Z,76.23
2023-02-09T16:49:15.796Z,75.42
2023-02-09T16:50:25.763Z,73.50
2023-02-09T16:51:29.160Z,74.65
2023-02-09T16:52:32.875Z,72.87
2023-02-09T16:53:40.409Z,73.44
2023-02-09T16:55:56.551Z,72.42
2023-02-09T16:57:00.187Z,72.11
2023-02-09T16:58:04.915Z,72.05
2023-02-09T16:59:11.025Z,71.36
2023-02-09T17:00:15.683Z,71.60
2023-02-09T17:01:26.880Z,71.87
2023-02-09T17:02:27.989Z,72.55
2023-02-09T17:03:32.783Z,71.06
2023-02-09T17:04:39.109Z,71.08
2023-02-09T17:05:47.607Z,71.19
2023-02-09T17:06:53.138Z,71.41
2023-02-09T17:08:06.753Z,71.20
2023-02-09T17:09:14.842Z,70.83
2023-02-09T17:10:19.661Z,70.03
2023-02-09T17:11:24.164Z,70.58
2023-02-09T17:12:29.547Z,70.16
2023-02-09T17:13:32.011Z,70.54
2023-02-09T17:14:37.214Z,70.65
2023-02-09T17:15:55.336Z,70.37
2023-02-09T17:16:58.815Z,70.87
2023-02-09T17:18:03.252Z,70.87
2023-02-09T17:19:08.650Z,70.75
2023-02-09T17:20:15.283Z,70.38
2023-02-09T17:21:23.392Z,70.86
2023-02-09T17:22:26.418Z,70.46
2023-02-09T17:23:30.605Z,70.06
2023-02-09T17:24:36.616Z,69.56
2023-02-09T17:25:40.224Z,68.83
2023-02-09T17:26:43.962Z,69.71
2023-02-09T17:27:47.445Z,69.81
2023-02-09T17:28:51.784Z,69.55
2023-02-09T17:29:55.184Z,69.10
2023-02-09T17:31:00.058Z,69.18
2023-02-09T17:32:04.223Z,68.85
2023-02-09T17:33:08.936Z,68.66
2023-02-09T17:34:14.352Z,68.52
2023-02-09T17:35:38.239Z,68.65
2023-02-09T17:36:28.407Z,68.95
2023-02-09T17:37:30.827Z,67.89
2023-02-09T17:38:35.435Z,67.80
2023-02-09T17:39:40.202Z,68.33
2023-02-09T17:40:43.811Z,68.26
2023-02-09T17:41:50.138Z,68.12
2023-02-09T17:42:54.780Z,68.52
2023-02-09T17:44:10.602Z,68.24
2023-02-09T17:45:05.584Z,67.70
2023-02-09T17:46:11.305Z,68.06
2023-02-09T17:47:17.198Z,68.16
2023-02-09T17:48:24.545Z,66.92
2023-02-09T17:49:28.240Z,67.18
2023-02-09T17:50:32.486Z,67.75
2023-02-09T17:51:37.303Z,67.39
2023-02-09T17:52:40.433Z,67.44
2023-02-09T17:53:43.675Z,67.25
2023-02-09T17:54:48.271Z,67.20
2023-02-09T17:55:52.031Z,67.51
2023-02-09T17:56:56.221Z,66.79
2023-02-09T17:58:00.781Z,66.77
2023-02-09T17:59:08.577Z,66.66
2023-02-09T18:00:11.655Z,66.85
2023-02-09T18:01:20.647Z,66.83
2023-02-09T18:02:24.168Z,67.21
2023-02-09T18:03:26.869Z,67.36
2023-02-09T18:04:33.359Z,67.39
2023-02-09T18:05:38.336Z,67.21
2023-02-09T18:06:42.742Z,67.13
2023-02-09T18:07:45.884Z,67.00
2023-02-09T18:08:49.249Z,67.06
2023-02-09T18:09:53.855Z,67.63
2023-02-09T18:11:00.099Z,67.41
2023-02-09T18:12:05.451Z,67.26
2023-02-09T18:13:09.382Z,66.25
2023-02-09T18:14:13.514Z,66.83
2023-02-09T18:15:26.294Z,66.98
2023-02-09T18:16:30.769Z,66.40
2023-02-09T18:17:33.117Z,66.34
2023-02-09T18:18:35.682Z,66.05
2023-02-09T18:19:38.994Z,66.28
2023-02-09T18:20:42.378Z,66.12
2023-02-09T18:21:53.922Z,65.99
2023-02-09T18:22:57.524Z,66.58
2023-02-09T18:24:01.657Z,66.61
2023-02-09T18:25:04.972Z,66.12
2023-02-09T18:26:08.421Z,66.44
2023-02-09T18:27:13.749Z,67.08
2023-02-09T18:28:16.426Z,66.73
2023-02-09T18:29:21.166Z,66.77
2023-02-09T18:30:26.563Z,66.22
2023-02-09T18:31:30.065Z,66.47
2023-02-09T18:32:33.454Z,66.12
2023-02-09T18:33:38.658Z,66.77
2023-02-09T18:34:42.103Z,66.26
2023-02-09T18:35:45.774Z,66.40
2023-02-09T18:36:48.748Z,66.79
2023-02-09T18:37:51.396Z,66.79
2023-02-09T18:38:54.598Z,67.22
2023-02-09T18:39:57.168Z,67.41
2023-02-09T18:41:00.884Z,67.41
2023-02-09T18:42:07.305Z,67.23
2023-02-09T18:43:12.953Z,67.97
2023-02-09T18:44:16.497Z,68.78
2023-02-09T18:45:20.743Z,68.48
2023-02-09T18:46:26.785Z,68.09
2023-02-09T18:47:31.190Z,67.91
2023-02-09T18:48:34.598Z,67.91
2023-02-09T18:49:38.977Z,68.79
2023-02-09T18:50:42.444Z,68.14
2023-02-09T18:51:46.057Z,68.61
2023-02-09T18:52:50.538Z,68.97
2023-02-09T18:53:53.367Z,69.81
2023-02-09T18:54:57.645Z,68.85
2023-02-09T18:56:02.678Z,68.81
2023-02-09T18:57:05.567Z,70.10
2023-02-09T18:58:09.495Z,68.58
2023-02-09T18:59:13.005Z,68.37
2023-02-09T19:00:18.803Z,68.37
2023-02-09T19:01:25.400Z,68.61
2023-02-09T19:02:28.345Z,69.09
2023-02-09T19:03:30.966Z,69.16
2023-02-09T19:04:34.385Z,68.60
2023-02-09T19:05:38.625Z,69.12
2023-02-09T19:06:41.913Z,68.33
2023-02-09T19:07:48.650Z,69.80
2023-02-09T19:08:53.402Z,70.34
2023-02-09T19:09:56.866Z,69.22
2023-02-09T19:11:01.149Z,68.63
2023-02-09T19:12:04.409Z,68.93
2023-02-09T19:13:07.741Z,69.66
2023-02-09T19:14:28.596Z,69.16
2023-02-09T19:15:33.173Z,69.68
2023-02-09T19:16:37.267Z,69.86
2023-02-09T19:17:43.611Z,69.42
2023-02-09T19:18:46.706Z,69.33
2023-02-09T19:19:50.305Z,69.33
2023-02-09T19:20:56.587Z,69.13
2023-02-09T19:22:02.018Z,70.45
2023-02-09T19:23:09.105Z,70.85
2023-02-09T19:24:12.666Z,69.98
2023-02-09T19:25:16.067Z,70.29
2023-02-09T19:26:20.234Z,69.63
2023-02-09T19:27:24.133Z,69.12
2023-02-09T19:28:27.520Z,69.01
2023-02-09T19:29:31.897Z,69.34
2023-02-09T19:30:36.330Z,70.00
2023-02-09T19:31:40.470Z,70.10
2023-02-09T19:32:44.268Z,69.61
2023-02-09T19:33:47.577Z,69.62
2023-02-09T19:34:50.868Z,69.77
2023-02-09T19:35:59.002Z,69.27
2023-02-09T19:37:05.215Z,69.14
2023-02-09T19:38:09.211Z,69.72
2023-02-09T19:39:12.728Z,68.83
2023-02-09T19:40:20.396Z,69.32
2023-02-09T19:41:24.203Z,69.03
2023-02-09T19:42:27.615Z,68.79
2023-02-09T19:43:31.689Z,68.87
2023-02-09T19:44:40.683Z,68.87
2023-02-09T19:45:44.717Z,69.71
2023-02-09T19:46:52.145Z,69.30
2023-02-09T19:47:57.695Z,69.24
2023-02-09T19:49:02.659Z,69.56
2023-02-09T19:50:05.517Z,69.86
2023-02-09T19:51:09.112Z,69.73
2023-02-09T19:52:11.574Z,69.53
2023-02-09T19:53:14.810Z,69.48
2023-02-09T19:54:18.497Z,70.55
2023-02-09T19:55:21.999Z,70.19
2023-02-09T19:56:25.505Z,70.50
2023-02-09T19:57:28.279Z,70.29
2023-02-09T19:58:34.280Z,69.79
2023-02-09T19:59:39.455Z,70.39
2023-02-09T20:00:44.643Z,69.82
2023-02-09T20:01:47.098Z,70.22
2023-02-09T20:02:50.844Z,69.99
2023-02-09T20:03:53.905Z,69.91
2023-02-09T20:04:56.798Z,70.52
2023-02-09T20:06:01.536Z,70.17
2023-02-09T20:07:05.579Z,69.94
2023-02-09T20:08:08.759Z,70.05
2023-02-09T20:09:13.111Z,69.48
2023-02-09T20:10:15.343Z,70.40
2023-02-09T20:11:18.959Z,70.67
2023-02-09T20:12:23.720Z,70.47
2023-02-09T20:13:27.652Z,70.42
2023-02-09T20:14:31.754Z,70.37
2023-02-09T20:15:39.260Z,70.20
2023-02-09T20:16:42.480Z,70.54
2023-02-09T20:18:49.505Z,70.47
2023-02-09T20:19:53.076Z,70.51
2023-02-09T20:20:56.665Z,70.98
2023-02-09T20:21:59.447Z,70.53
2023-02-09T20:23:02.579Z,70.11
2023-02-09T20:24:08.454Z,70.31
2023-02-09T20:25:12.776Z,70.56
2023-02-09T20:26:17.491Z,70.76
2023-02-09T20:27:20.516Z,69.95
2023-02-09T20:28:24.087Z,69.84
2023-02-09T20:29:28.463Z,70.39
2023-02-09T20:30:33.213Z,70.47
2023-02-09T20:31:37.865Z,70.06
2023-02-09T20:32:42.566Z,70.03
2023-02-09T20:33:46.038Z,70.49
2023-02-09T20:34:48.914Z,69.99